Terminal Aerodrome Forecast
Issued by NWS Northern Indiana

Home | Current Version | Previous Version | Text Only | Print | Product List | Glossary On
Versions: 1 2 3 4 5 6 7 8 9 10 11 12
000
FTUS43 KIWX 270500
TAFFWA
TAF
KFWA 270538Z 2706/2806 33008KT P6SM SCT050
     FM271500 32012G20KT P6SM SCT045
     FM280100 35005KT P6SM SCT250=

USA.gov is the U.S. government's official web portal to all federal, state and local government web resources and services.